Time;durP1;ratioP1;P1;durP2;ratioP2;P2;SDS_P1;SDS_P2;PMS_P1;PMS_P2;Temp;Humidity;BMP_temperature;BMP_pressure;BME280_temperature;BME280_humidity;BME280_pressure;Samples;Min_cycle;Max_cycle;Signal;HPM_P1;HPM_P2
2022/01/09 00:00:08;;;;;;;1999.90;999.90;;;;;;;-2.81;56.97;99233.38;4937235;28;99217;-68
2022/01/09 00:02:38;;;;;;;1999.90;999.90;;;;;;;-2.76;57.57;99218.88;4959587;22;101172;-73
2022/01/09 00:05:07;;;;;;;1999.90;999.90;;;;;;;-2.73;57.40;99220.75;4938069;28;99328;-73
2022/01/09 00:07:38;;;;;;;1999.90;999.90;;;;;;;-2.77;57.19;99214.50;4935854;28;97251;-73
2022/01/09 00:10:07;;;;;;;1999.90;999.90;;;;;;;-2.77;57.21;99203.19;4938330;28;96952;-73
2022/01/09 00:12:37;;;;;;;1999.90;999.90;;;;;;;-2.78;57.38;99196.22;4931911;28;98886;-73
2022/01/09 00:15:06;;;;;;;1999.90;999.90;;;;;;;-2.80;57.36;99188.31;4934346;28;99518;-73
2022/01/09 00:17:34;;;;;;;1999.90;999.90;;;;;;;-2.84;57.66;99192.47;4935784;28;99014;-74
2022/01/09 00:20:05;;;;;;;1999.90;999.90;;;;;;;-2.82;57.25;99192.56;4934870;28;98285;-73
2022/01/09 00:22:38;;;;;;;1999.90;999.90;;;;;;;-2.82;57.53;99188.25;4969205;28;97602;-73
2022/01/09 00:25:06;;;;;;;1999.90;999.90;;;;;;;-2.81;57.00;99176.13;4940131;28;97838;-73
2022/01/09 00:27:37;;;;;;;1999.90;999.90;;;;;;;-2.78;57.36;99176.25;4939972;28;98509;-73
2022/01/09 00:30:05;;;;;;;1999.90;999.90;;;;;;;-2.75;57.40;99173.81;4940395;28;97208;-73
2022/01/09 00:32:33;;;;;;;1999.90;999.90;;;;;;;-2.73;56.73;99169.59;4944319;28;98421;-73
2022/01/09 00:35:01;;;;;;;1999.90;999.90;;;;;;;-2.71;56.57;99152.34;4940260;28;99284;-73
2022/01/09 00:37:29;;;;;;;1999.90;999.90;;;;;;;-2.70;56.63;99156.72;4942003;28;98638;-74
2022/01/09 00:39:57;;;;;;;1999.90;999.90;;;;;;;-2.71;57.02;99148.84;4942483;28;98317;-73
2022/01/09 00:42:25;;;;;;;1999.90;999.90;;;;;;;-2.73;57.05;99140.97;4937502;28;100533;-74
2022/01/09 00:44:55;;;;;;;1999.90;999.90;;;;;;;-2.74;57.36;99140.88;4968718;28;98870;-74
2022/01/09 00:47:22;;;;;;;1999.90;999.90;;;;;;;-2.75;56.76;99133.88;4943315;28;96931;-74
2022/01/09 00:49:50;;;;;;;1999.90;999.90;;;;;;;-2.75;57.41;99131.28;4943511;28;98225;-73
2022/01/09 00:52:18;;;;;;;1999.90;999.90;;;;;;;-2.76;57.29;99127.78;4943034;28;96872;-73
2022/01/09 00:54:46;;;;;;;1999.90;999.90;;;;;;;-2.76;57.12;99124.31;4958172;28;100352;-74
2022/01/09 00:57:14;;;;;;;1999.90;999.90;;;;;;;-2.76;57.20;99116.50;4940202;28;98317;-74
2022/01/09 00:59:42;;;;;;;1999.90;999.90;;;;;;;-2.75;56.92;99120.88;4939093;28;97657;-73
2022/01/09 01:02:11;;;;;;;1999.90;999.90;;;;;;;-2.74;56.90;99113.13;4941058;28;97648;-74
2022/01/09 01:04:40;;;;;;;1999.90;999.90;;;;;;;-2.73;56.87;99101.91;4940659;28;97834;-74
2022/01/09 01:07:08;;;;;;;1999.90;999.90;;;;;;;-2.73;57.26;99098.41;4941899;28;99255;-74
2022/01/09 01:09:36;;;;;;;1999.90;999.90;;;;;;;-2.75;56.89;99095.75;4941540;28;98586;-73
2022/01/09 01:12:04;;;;;;;1999.90;999.90;;;;;;;-2.79;57.37;99088.63;4937798;28;97891;-74
2022/01/09 01:14:32;;;;;;;1999.90;999.90;;;;;;;-2.83;57.18;99091.88;4941625;28;99924;-73
2022/01/09 01:17:01;;;;;;;1999.90;999.90;;;;;;;-2.81;57.18;99095.47;4938769;28;97173;-73
2022/01/09 01:19:30;;;;;;;1999.90;999.90;;;;;;;-2.88;57.48;99080.38;4942063;28;97186;-73
2022/01/09 01:22:18;;;;;;;1999.90;999.90;;;;;;;-2.91;57.23;99075.03;4941137;28;97632;-73
2022/01/09 01:24:46;;;;;;;1999.90;999.90;;;;;;;-2.91;57.60;99064.63;4921177;28;99413;-73
2022/01/09 01:27:14;;;;;;;1999.90;999.90;;;;;;;-2.90;57.13;99058.59;4941328;28;96864;-73
2022/01/09 01:29:42;;;;;;;1999.90;999.90;;;;;;;-2.89;57.55;99055.16;4923931;28;97637;-73
2022/01/09 01:32:10;;;;;;;1999.90;999.90;;;;;;;-2.91;57.15;99055.09;4941592;28;97120;-73
2022/01/09 01:34:39;;;;;;;1999.90;999.90;;;;;;;-2.90;57.41;99056.91;4942433;28;97664;-73
2022/01/09 01:37:07;;;;;;;1999.90;999.90;;;;;;;-2.90;57.56;99046.50;4941641;28;97818;-74
2022/01/09 01:39:35;;;;;;;1999.90;999.90;;;;;;;-2.92;57.47;99047.22;4940799;28;97549;-74
2022/01/09 01:42:03;;;;;;;1999.90;999.90;;;;;;;-2.89;57.10;99049.97;4941626;28;97536;-74
2022/01/09 01:44:39;;;;;;;1999.90;999.90;;;;;;;-2.87;57.35;99051.81;4943955;28;98753;-73
2022/01/09 01:47:08;;;;;;;1999.90;999.90;;;;;;;-2.84;56.98;99048.47;4941152;28;96898;-73
2022/01/09 01:49:36;;;;;;;1999.90;999.90;;;;;;;-2.79;57.52;99046.97;4939088;28;98560;-73
2022/01/09 01:52:06;;;;;;;1999.90;999.90;;;;;;;-2.77;57.10;99047.94;4943383;28;98849;-73
2022/01/09 01:54:34;;;;;;;1999.90;999.90;;;;;;;-2.74;57.40;99048.06;4942485;28;98882;-73
2022/01/09 01:57:03;;;;;;;1999.90;999.90;;;;;;;-2.75;57.44;99051.50;4942742;28;96976;-75
2022/01/09 01:59:31;;;;;;;1999.90;999.90;;;;;;;-2.73;56.91;99051.56;4941826;28;97149;-73
2022/01/09 02:01:59;;;;;;;1999.90;999.90;;;;;;;-2.73;57.03;99038.56;4940474;28;99989;-73
2022/01/09 02:04:27;;;;;;;1999.90;999.90;;;;;;;-2.70;56.85;99036.97;4936479;28;98836;-74
2022/01/09 02:06:55;;;;;;;1999.90;999.90;;;;;;;-2.73;56.95;99035.97;4940016;28;97329;-73
2022/01/09 02:09:25;;;;;;;1999.90;999.90;;;;;;;-2.72;56.92;99033.41;4941510;28;97000;-74
2022/01/09 02:11:53;;;;;;;1999.90;999.90;;;;;;;-2.74;56.48;99023.75;4939556;28;99144;-72
2022/01/09 02:14:21;;;;;;;1999.90;999.90;;;;;;;-2.76;56.72;99026.28;4938613;28;98866;-74
2022/01/09 02:16:50;;;;;;;1999.90;999.90;;;;;;;-2.72;57.21;99024.72;4940576;28;97318;-74
2022/01/09 02:19:20;;;;;;;1999.90;999.90;;;;;;;-2.69;56.80;99020.53;4924000;28;97207;-74
2022/01/09 02:21:49;;;;;;;1999.90;999.90;;;;;;;-2.70;56.73;99017.88;4941804;28;98632;-73
2022/01/09 02:24:22;;;;;;;1999.90;999.90;;;;;;;-2.69;56.76;99019.66;4938381;28;97949;-74
2022/01/09 02:26:50;;;;;;;1999.90;999.90;;;;;;;-2.69;56.40;99014.47;4940857;28;97557;-74
2022/01/09 02:29:19;;;;;;;1999.90;999.90;;;;;;;-2.68;56.51;99004.13;4940285;28;97383;-74
2022/01/09 02:31:46;;;;;;;1999.90;999.90;;;;;;;-2.68;56.37;99004.13;4941446;28;97637;-74
2022/01/09 02:34:14;;;;;;;1999.90;999.90;;;;;;;-2.67;56.67;98998.06;4938610;28;97517;-74
2022/01/09 02:36:42;;;;;;;1999.90;999.90;;;;;;;-2.65;56.55;98991.22;4943109;28;97795;-73
2022/01/09 02:39:11;;;;;;;1999.90;999.90;;;;;;;-2.65;56.78;98983.41;4937064;28;98992;-73
2022/01/09 02:41:39;;;;;;;1999.90;999.90;;;;;;;-2.65;56.11;98993.81;4937909;28;99312;-74
2022/01/09 02:44:08;;;;;;;1999.90;999.90;;;;;;;-2.67;56.38;98985.06;4937010;28;99708;-73
2022/01/09 02:46:55;;;;;;;1999.90;999.90;;;;;;;-2.68;56.31;98980.69;4940445;28;96983;-74
2022/01/09 02:49:25;;;;;;;1999.90;999.90;;;;;;;-2.65;56.44;98975.59;4941579;28;97860;-74
2022/01/09 02:51:53;;;;;;;1999.90;999.90;;;;;;;-2.62;56.48;98965.34;4940380;28;99466;-74
2022/01/09 02:57:08;;;;;;;1999.90;999.90;;;;;;;-2.62;56.76;98975.75;4940880;28;97592;-73
2022/01/09 02:59:38;;;;;;;1999.90;999.90;;;;;;;-2.65;56.62;98962.59;4940865;28;97267;-74
2022/01/09 03:02:06;;;;;;;1999.90;999.90;;;;;;;-2.69;56.90;98960.66;4938699;28;101500;-74
2022/01/09 03:04:34;;;;;;;1999.90;999.90;;;;;;;-2.69;56.99;98963.28;4946838;28;99793;-73
2022/01/09 03:07:02;;;;;;;1999.90;999.90;;;;;;;-2.69;57.03;98958.06;4940607;28;97374;-73
2022/01/09 03:09:31;;;;;;;1999.90;999.90;;;;;;;-2.69;56.49;98955.47;4922491;28;97088;-73
2022/01/09 03:11:59;;;;;;;1999.90;999.90;;;;;;;-2.67;57.07;98959.03;4940972;28;98344;-74
2022/01/09 03:14:26;;;;;;;1999.90;999.90;;;;;;;-2.63;56.62;98957.44;4924106;28;101460;-74
2022/01/09 03:16:54;;;;;;;1999.90;999.90;;;;;;;-2.64;56.76;98948.78;4939803;28;97812;-74
2022/01/09 03:19:22;;;;;;;1999.90;999.90;;;;;;;-2.63;56.44;98942.72;4938767;28;99446;-74
2022/01/09 03:21:50;;;;;;;1999.90;999.90;;;;;;;-2.59;56.25;98939.44;4941027;28;97626;-74
2022/01/09 03:24:17;;;;;;;1999.90;999.90;;;;;;;-2.57;56.53;98939.50;4934814;28;98406;-74
2022/01/09 03:26:47;;;;;;;1999.90;999.90;;;;;;;-2.56;56.75;98944.78;4938729;28;98159;-74
2022/01/09 03:29:16;;;;;;;1999.90;999.90;;;;;;;-2.50;56.94;98938.94;4942458;28;97025;-74
2022/01/09 03:31:44;;;;;;;1999.90;999.90;;;;;;;-2.46;56.14;98938.25;4935710;28;99437;-74
2022/01/09 03:34:11;;;;;;;1999.90;999.90;;;;;;;-2.48;55.82;98932.97;4938347;28;97453;-73
2022/01/09 03:36:39;;;;;;;1999.90;999.90;;;;;;;-2.51;56.02;98938.03;4939366;28;97183;-74
2022/01/09 03:39:07;;;;;;;1999.90;999.90;;;;;;;-2.53;56.63;98931.00;4939395;28;97513;-74
2022/01/09 03:41:36;;;;;;;1999.90;999.90;;;;;;;-2.60;56.48;98932.44;4939312;28;96976;-73
2022/01/09 03:44:05;;;;;;;1999.90;999.90;;;;;;;-2.60;56.75;98937.63;4938113;28;99833;-73
2022/01/09 03:46:33;;;;;;;1999.90;999.90;;;;;;;-2.58;55.93;98929.94;4938164;28;96943;-73
2022/01/09 03:49:01;;;;;;;1999.90;999.90;;;;;;;-2.53;56.19;98928.41;4938835;28;97950;-74
2022/01/09 03:51:33;;;;;;;1999.90;999.90;;;;;;;-2.57;56.37;98927.38;4941088;28;98579;-73
2022/01/09 03:54:01;;;;;;;1999.90;999.90;;;;;;;-2.59;56.37;98923.81;4940080;28;97919;-73
2022/01/09 03:56:29;;;;;;;1999.90;999.90;;;;;;;-2.60;56.22;98929.84;4938233;28;98900;-73
2022/01/09 03:58:57;;;;;;;1999.90;999.90;;;;;;;-2.58;56.37;98928.19;4935606;28;101901;-74
2022/01/09 04:01:26;;;;;;;1999.90;999.90;;;;;;;-2.55;56.35;98925.75;4944853;28;98171;-74
2022/01/09 04:03:54;;;;;;;1999.90;999.90;;;;;;;-2.53;56.15;98921.50;4945733;28;99003;-74
2022/01/09 04:06:23;;;;;;;1999.90;999.90;;;;;;;-2.52;56.71;98925.84;4944442;28;98138;-73
2022/01/09 04:08:52;;;;;;;1999.90;999.90;;;;;;;-2.51;56.88;98913.75;4943138;28;96844;-73
2022/01/09 04:11:23;;;;;;;1999.90;999.90;;;;;;;-2.52;55.95;98912.84;4944065;28;97555;-73
2022/01/09 04:13:51;;;;;;;1999.90;999.90;;;;;;;-2.52;56.39;98918.03;4941296;28;97988;-74
2022/01/09 04:16:19;;;;;;;1999.90;999.90;;;;;;;-2.48;56.10;98925.16;4955255;28;97286;-74
2022/01/09 04:18:48;;;;;;;1999.90;999.90;;;;;;;-2.50;56.45;98916.41;4938105;28;97355;-74
2022/01/09 04:21:16;;;;;;;1999.90;999.90;;;;;;;-2.55;56.81;98915.31;4933724;28;98602;-74
2022/01/09 04:23:44;;;;;;;1999.90;999.90;;;;;;;-2.55;55.99;98920.53;4960900;28;97612;-74
2022/01/09 04:26:12;;;;;;;1999.90;999.90;;;;;;;-2.56;56.51;98923.94;4936758;28;97788;-74
2022/01/09 04:28:40;;;;;;;1999.90;999.90;;;;;;;-2.54;56.23;98926.59;4938838;28;96970;-74
2022/01/09 04:31:07;;;;;;;1999.90;999.90;;;;;;;-2.52;56.90;98914.53;4936178;28;98887;-73
2022/01/09 04:33:35;;;;;;;1999.90;999.90;;;;;;;-2.52;55.97;98910.25;4940299;28;99762;-73
2022/01/09 04:36:05;;;;;;;1999.90;999.90;;;;;;;-2.49;56.47;98918.16;4936462;28;97059;-72
2022/01/09 04:38:33;;;;;;;1999.90;999.90;;;;;;;-2.48;56.01;98919.97;4938629;28;98426;-72
2022/01/09 04:41:01;;;;;;;1999.90;999.90;;;;;;;-2.46;56.05;98910.50;4939022;28;97655;-73
2022/01/09 04:43:29;;;;;;;1999.90;999.90;;;;;;;-2.47;56.60;98911.31;4939255;28;98350;-72
2022/01/09 04:45:57;;;;;;;1999.90;999.90;;;;;;;-2.47;56.81;98916.53;4937716;28;97565;-72
2022/01/09 04:48:25;;;;;;;1999.90;999.90;;;;;;;-2.46;56.80;98910.50;4934882;28;97928;-72
2022/01/09 04:50:53;;;;;;;1999.90;999.90;;;;;;;-2.42;56.40;98916.72;4940385;28;98014;-73
2022/01/09 04:53:22;;;;;;;1999.90;999.90;;;;;;;-2.39;56.24;98922.97;4942796;28;96933;-72
2022/01/09 04:55:50;;;;;;;1999.90;999.90;;;;;;;-2.36;56.33;98910.06;4940689;28;96891;-73
2022/01/09 04:58:19;;;;;;;1999.90;999.90;;;;;;;-2.36;56.80;98910.06;4941602;28;97857;-73
2022/01/09 05:00:46;;;;;;;1999.90;999.90;;;;;;;-2.35;55.93;98906.63;4939446;28;97608;-74
2022/01/09 05:03:16;;;;;;;1999.90;999.90;;;;;;;-2.33;56.14;98905.00;4956340;28;98798;-74
2022/01/09 05:05:44;;;;;;;1999.90;999.90;;;;;;;-2.29;55.85;98904.28;4925957;28;97387;-74
2022/01/09 05:08:12;;;;;;;1999.90;999.90;;;;;;;-2.31;56.77;98903.31;4946141;28;97027;-74
2022/01/09 05:10:41;;;;;;;1999.90;999.90;;;;;;;-2.30;56.43;98907.72;4962613;22;98920;-75
2022/01/09 05:13:09;;;;;;;1999.90;999.90;;;;;;;-2.25;56.32;98910.50;4945895;28;98438;-75
2022/01/09 05:15:36;;;;;;;1999.90;999.90;;;;;;;-2.27;56.59;98907.84;4950348;28;97106;-75
2022/01/09 05:18:11;;;;;;;1999.90;999.90;;;;;;;-2.24;56.39;98910.59;4945499;28;96559;-73
2022/01/09 05:20:39;;;;;;;1999.90;999.90;;;;;;;-2.23;56.45;98911.44;4949569;28;98025;-75
2022/01/09 05:23:07;;;;;;;1999.90;999.90;;;;;;;-2.21;56.69;98913.31;4946863;28;99385;-75
2022/01/09 05:25:34;;;;;;;1999.90;999.90;;;;;;;-2.21;56.08;98905.50;4950398;28;96813;-74
2022/01/09 05:28:04;;;;;;;1999.90;999.90;;;;;;;-2.21;55.81;98904.59;4947340;28;97767;-73
2022/01/09 05:30:32;;;;;;;1999.90;999.90;;;;;;;-2.20;56.37;98907.25;4947629;28;100881;-74
2022/01/09 05:33:00;;;;;;;1999.90;999.90;;;;;;;-2.19;56.60;98902.94;4947394;28;99173;-75
2022/01/09 05:35:28;;;;;;;1999.90;999.90;;;;;;;-2.17;56.26;98903.94;4945647;28;97139;-74
2022/01/09 05:37:56;;;;;;;1999.90;999.90;;;;;;;-2.18;56.31;98910.81;4949616;28;96784;-75
2022/01/09 05:40:24;;;;;;;1999.90;999.90;;;;;;;-2.17;56.43;98910.03;4945780;28;98806;-74
2022/01/09 05:42:52;;;;;;;1999.90;999.90;;;;;;;-2.17;56.73;98915.25;4950285;28;98107;-72
2022/01/09 05:45:21;;;;;;;1999.90;999.90;;;;;;;-2.14;56.37;98911.88;4950429;28;96802;-74
2022/01/09 05:47:48;;;;;;;1999.90;999.90;;;;;;;-2.16;56.67;98918.72;4947266;28;97138;-73
2022/01/09 05:50:16;;;;;;;1999.90;999.90;;;;;;;-2.25;56.74;98915.69;4948160;28;97014;-74
2022/01/09 05:52:44;;;;;;;1999.90;999.90;;;;;;;-2.25;57.44;98919.22;4949794;28;98369;-75
2022/01/09 05:55:12;;;;;;;1999.90;999.90;;;;;;;-2.24;56.38;98918.41;4947044;28;98860;-75
2022/01/09 05:57:40;;;;;;;1999.90;999.90;;;;;;;-2.24;56.83;98923.59;4938664;28;97352;-75
2022/01/09 06:00:08;;;;;;;1999.90;999.90;;;;;;;-2.22;56.54;98921.97;4950331;28;97563;-75
2022/01/09 06:02:46;;;;;;;1999.90;999.90;;;;;;;-2.18;56.41;98918.63;4948285;28;99723;-75
2022/01/09 06:05:14;;;;;;;1999.90;999.90;;;;;;;-2.17;56.46;98920.47;4931649;28;97708;-75
2022/01/09 06:07:43;;;;;;;1999.90;999.90;;;;;;;-2.15;56.36;98911.00;4940850;28;96748;-74
2022/01/09 06:10:13;;;;;;;1999.90;999.90;;;;;;;-2.16;56.40;98913.50;4959285;28;97635;-75
2022/01/09 06:12:41;;;;;;;1999.90;999.90;;;;;;;-2.14;56.17;98920.56;4944619;28;99355;-75
2022/01/09 06:15:10;;;;;;;1999.90;999.90;;;;;;;-2.18;57.06;98915.16;4949419;28;97304;-75
2022/01/09 06:17:38;;;;;;;1999.90;999.90;;;;;;;-2.22;57.21;98910.66;4951333;28;97916;-76
2022/01/09 06:20:09;;;;;;;1999.90;999.90;;;;;;;-2.24;56.89;98923.59;4949609;28;100725;-75
2022/01/09 06:22:37;;;;;;;1999.90;999.90;;;;;;;-2.24;56.77;98926.22;4942781;28;100143;-76
2022/01/09 06:25:05;;;;;;;1999.90;999.90;;;;;;;-2.28;56.92;98916.50;4945155;28;97833;-75
2022/01/09 06:27:33;;;;;;;1999.90;999.90;;;;;;;-2.28;57.41;98921.69;4950675;28;97201;-75
2022/01/09 06:30:01;;;;;;;1999.90;999.90;;;;;;;-2.28;56.74;98920.78;4949584;28;98028;-74
2022/01/09 06:32:29;;;;;;;1999.90;999.90;;;;;;;-2.27;57.34;98928.66;4948783;28;99234;-76
2022/01/09 06:34:56;;;;;;;1999.90;999.90;;;;;;;-2.27;56.88;98920.00;4950300;28;96960;-76
2022/01/09 06:37:25;;;;;;;1999.90;999.90;;;;;;;-2.30;57.02;98918.13;4950077;28;96802;-76
2022/01/09 06:39:53;;;;;;;1999.90;999.90;;;;;;;-2.34;57.29;98921.44;4947226;28;98081;-76
2022/01/09 06:42:21;;;;;;;1999.90;999.90;;;;;;;-2.37;57.07;98918.72;4948503;28;99853;-75
2022/01/09 06:44:49;;;;;;;1999.90;999.90;;;;;;;-2.38;57.04;98916.91;4957668;28;96980;-76
2022/01/09 06:47:16;;;;;;;1999.90;999.90;;;;;;;-2.37;57.36;98923.00;4947927;28;96958;-76
2022/01/09 06:49:44;;;;;;;1999.90;999.90;;;;;;;-2.43;57.62;98918.44;4948347;28;97800;-76
2022/01/09 06:52:12;;;;;;;1999.90;999.90;;;;;;;-2.43;57.96;98917.53;4945920;28;98949;-76
2022/01/09 06:54:41;;;;;;;1999.90;999.90;;;;;;;-2.45;57.11;98925.28;4944952;28;97331;-77
2022/01/09 06:57:09;;;;;;;1999.90;999.90;;;;;;;-2.44;57.63;98927.09;4946761;28;96969;-76
2022/01/09 06:59:37;;;;;;;1999.90;999.90;;;;;;;-2.45;57.15;98920.09;4940292;28;98493;-76
2022/01/09 07:02:05;;;;;;;1999.90;999.90;;;;;;;-2.45;57.92;98917.47;4949082;28;97658;-76
2022/01/09 07:04:32;;;;;;;1999.90;999.90;;;;;;;-2.45;57.87;98920.09;4949289;28;97763;-76
2022/01/09 07:07:00;;;;;;;1999.90;999.90;;;;;;;-2.47;58.05;98923.47;4947965;28;96895;-77
2022/01/09 07:09:28;;;;;;;1999.90;999.90;;;;;;;-2.48;58.00;98919.06;4945938;28;99481;-76
2022/01/09 07:11:57;;;;;;;1999.90;999.90;;;;;;;-2.48;57.72;98922.56;4947152;28;101180;-76
2022/01/09 07:14:24;;;;;;;1999.90;999.90;;;;;;;-2.46;57.86;98926.13;4947126;28;98289;-76
2022/01/09 07:16:52;;;;;;;1999.90;999.90;;;;;;;-2.46;57.62;98927.84;4949035;28;96901;-76
2022/01/09 07:19:20;;;;;;;1999.90;999.90;;;;;;;-2.44;57.78;98931.41;4946983;28;98914;-75
2022/01/09 07:21:47;;;;;;;1999.90;999.90;;;;;;;-2.44;57.53;98928.78;4945893;28;97647;-76
2022/01/09 07:24:15;;;;;;;1999.90;999.90;;;;;;;-2.42;57.54;98940.16;4948773;28;96719;-76
2022/01/09 07:26:43;;;;;;;1999.90;999.90;;;;;;;-2.41;57.35;98939.31;4947601;28;97299;-74
2022/01/09 07:29:12;;;;;;;1999.90;999.90;;;;;;;-2.40;57.24;98947.19;4946046;28;98297;-75
2022/01/09 07:31:40;;;;;;;1999.90;999.90;;;;;;;-2.39;57.91;98945.50;4943406;28;99266;-76
2022/01/09 07:34:07;;;;;;;1999.90;999.90;;;;;;;-2.40;57.75;98943.72;4944078;28;97556;-75
2022/01/09 07:36:35;;;;;;;1999.90;999.90;;;;;;;-2.40;57.25;98943.72;4943573;28;97065;-75
2022/01/09 07:39:03;;;;;;;1999.90;999.90;;;;;;;-2.39;58.18;98946.41;4946045;28;99437;-76
2022/01/09 07:41:31;;;;;;;1999.90;999.90;;;;;;;-2.37;57.25;98957.78;4939526;28;101623;-74
2022/01/09 07:43:59;;;;;;;1999.90;999.90;;;;;;;-2.36;57.88;98956.94;4940839;28;98010;-77
2022/01/09 07:46:28;;;;;;;1999.90;999.90;;;;;;;-2.33;58.16;98958.78;4941111;28;98167;-76
2022/01/09 07:48:56;;;;;;;1999.90;999.90;;;;;;;-2.33;57.64;98953.56;4946811;28;100265;-79
2022/01/09 07:51:23;;;;;;;1999.90;999.90;;;;;;;-2.30;57.46;98966.72;4943909;28;100678;-76
2022/01/09 07:54:09;;;;;;;1999.90;999.90;;;;;;;-2.27;57.80;98965.13;4939912;28;97291;-74
2022/01/09 07:56:37;;;;;;;1999.90;999.90;;;;;;;-2.25;57.27;98966.09;4936362;28;98214;-75
2022/01/09 07:59:05;;;;;;;1999.90;999.90;;;;;;;-2.24;57.73;98970.50;4950547;28;100361;-74
2022/01/09 08:01:34;;;;;;;1999.90;999.90;;;;;;;-2.23;57.88;98968.75;4949429;28;98397;-75
2022/01/09 08:04:02;;;;;;;1999.90;999.90;;;;;;;-2.20;57.28;98964.56;4946576;28;97135;-72
2022/01/09 08:06:29;;;;;;;1999.90;999.90;;;;;;;-2.17;57.90;98969.06;4938143;28;97862;-75
2022/01/09 08:08:57;;;;;;;1999.90;999.90;;;;;;;-2.13;57.18;98973.56;4943812;28;99196;-74
2022/01/09 08:11:25;;;;;;;1999.90;999.90;;;;;;;-2.11;57.28;98970.19;4943886;28;97762;-76
2022/01/09 08:13:54;;;;;;;1999.90;999.90;;;;;;;-2.07;57.73;98974.72;4945980;28;98871;-75
2022/01/09 08:16:21;;;;;;;1999.90;999.90;;;;;;;-2.06;57.52;98979.13;4943364;28;98548;-74
2022/01/09 08:18:51;;;;;;;1999.90;999.90;;;;;;;-2.07;57.63;98974.72;4942550;28;97097;-73
2022/01/09 08:21:20;;;;;;;1999.90;999.90;;;;;;;-2.04;57.83;98973.97;4947419;28;96815;-75
2022/01/09 08:23:48;;;;;;;1999.90;999.90;;;;;;;-2.04;58.03;98973.97;4943279;28;96974;-75
2022/01/09 08:26:16;;;;;;;1999.90;999.90;;;;;;;-2.03;57.83;98980.94;4945764;28;96935;-76
2022/01/09 08:28:47;;;;;;;1999.90;999.90;;;;;;;-2.04;58.04;98994.81;4950591;28;98782;-75
2022/01/09 08:31:16;;;;;;;1999.90;999.90;;;;;;;-2.04;57.75;99000.03;4950676;28;97637;-74
2022/01/09 08:33:44;;;;;;;1999.90;999.90;;;;;;;-2.01;57.70;98994.91;4947530;28;96881;-75
2022/01/09 08:36:13;;;;;;;1999.90;999.90;;;;;;;-1.98;57.58;98995.06;4943774;28;99403;-74
2022/01/09 08:38:42;;;;;;;1999.90;999.90;;;;;;;-1.92;57.99;98995.31;4951027;28;97986;-74
2022/01/09 08:41:10;;;;;;;1999.90;999.90;;;;;;;-1.89;57.68;99000.66;4951816;28;97615;-74
2022/01/09 08:43:38;;;;;;;1999.90;999.90;;;;;;;-1.88;57.48;99002.44;4943741;28;98550;-75
2022/01/09 08:46:06;;;;;;;1999.90;999.90;;;;;;;-1.86;57.66;99001.69;4944279;28;97881;-74
2022/01/09 08:48:34;;;;;;;1999.90;999.90;;;;;;;-1.83;57.46;99006.09;4943408;28;96921;-74
2022/01/09 08:51:02;;;;;;;1999.90;999.90;;;;;;;-1.78;57.66;99006.31;4938809;28;100380;-75
2022/01/09 08:53:32;;;;;;;1999.90;999.90;;;;;;;-1.73;57.57;99004.78;4943205;28;97999;-74
2022/01/09 08:55:59;;;;;;;1999.90;999.90;;;;;;;-1.73;57.31;99010.00;4942925;28;96922;-74
2022/01/09 08:58:27;;;;;;;1999.90;999.90;;;;;;;-1.71;57.23;99011.84;4942328;28;98376;-74
2022/01/09 09:00:55;;;;;;;1999.90;999.90;;;;;;;-1.69;57.67;99006.69;4943281;28;98728;-74
2022/01/09 09:03:23;;;;;;;1999.90;999.90;;;;;;;-1.68;57.25;99011.06;4942507;28;100137;-73
2022/01/09 09:05:51;;;;;;;1999.90;999.90;;;;;;;-1.67;57.16;99016.38;4939828;28;97140;-74
2022/01/09 09:08:19;;;;;;;1999.90;999.90;;;;;;;-1.63;57.11;99020.84;4948874;28;97618;-75
2022/01/09 09:10:48;;;;;;;1999.90;999.90;;;;;;;-1.61;57.13;99023.53;4948502;28;98718;-74
2022/01/09 09:13:16;;;;;;;1999.90;999.90;;;;;;;-1.57;57.09;99025.44;4929449;28;96901;-73
2022/01/09 09:15:43;;;;;;;1999.90;999.90;;;;;;;-1.56;57.09;99029.84;4944153;28;98242;-75
2022/01/09 09:18:11;;;;;;;1999.90;999.90;;;;;;;-1.57;57.90;99030.66;4939241;28;100351;-73
2022/01/09 09:20:39;;;;;;;1999.90;999.90;;;;;;;-1.56;57.78;99038.53;4937648;28;98716;-74
2022/01/09 09:23:06;;;;;;;1999.90;999.90;;;;;;;-1.53;57.15;99032.56;4937754;28;96909;-74
2022/01/09 09:25:34;;;;;;;1999.90;999.90;;;;;;;-1.51;57.18;99038.72;4934812;28;96972;-73
2022/01/09 09:28:03;;;;;;;1999.90;999.90;;;;;;;-1.51;57.68;99037.03;4936007;28;100034;-74
2022/01/09 09:30:31;;;;;;;1999.90;999.90;;;;;;;-1.51;57.68;99039.63;4937624;28;99116;-75
2022/01/09 09:32:59;;;;;;;1999.90;999.90;;;;;;;-1.50;57.63;99049.22;4944226;28;98814;-73
2022/01/09 09:35:27;;;;;;;1999.90;999.90;;;;;;;-1.48;57.48;99046.66;4957560;28;97714;-74
2022/01/09 09:37:55;;;;;;;1999.90;999.90;;;;;;;-1.44;57.96;99053.81;4943717;28;101323;-74
2022/01/09 09:40:22;;;;;;;1999.90;999.90;;;;;;;-1.41;57.27;99059.13;4942377;28;98899;-74
2022/01/09 09:42:50;;;;;;;1999.90;999.90;;;;;;;-1.38;57.37;99060.16;4943641;28;97047;-75
2022/01/09 09:45:20;;;;;;;1999.90;999.90;;;;;;;-1.36;57.35;99063.69;4938311;28;96820;-75
2022/01/09 09:47:47;;;;;;;1999.90;999.90;;;;;;;-1.33;57.33;99061.25;4941055;28;97898;-74
2022/01/09 09:50:16;;;;;;;1999.90;999.90;;;;;;;-1.30;57.84;99060.47;4941768;28;98016;-75
2022/01/09 09:52:44;;;;;;;1999.90;999.90;;;;;;;-1.27;57.65;99061.47;4954714;28;97174;-73
2022/01/09 09:55:13;;;;;;;1999.90;999.90;;;;;;;-1.21;57.64;99071.25;4938817;28;97041;-74
2022/01/09 09:57:41;;;;;;;1999.90;999.90;;;;;;;-1.19;57.32;99067.91;4941927;28;97462;-75
2022/01/09 10:00:12;;;;;;;1999.90;999.90;;;;;;;-1.14;56.95;99081.13;4942484;28;101133;-75
2022/01/09 10:02:46;;;;;;;1999.90;999.90;;;;;;;-1.12;56.95;99079.44;4942753;28;96856;-75
2022/01/09 10:05:16;;;;;;;1999.90;999.90;;;;;;;-1.14;57.60;99087.22;4945679;28;96901;-73
2022/01/09 10:07:50;;;;;;;1999.90;999.90;;;;;;;-1.15;57.19;99084.56;4938448;28;100530;-74
2022/01/09 10:10:18;;;;;;;1999.90;999.90;;;;;;;-1.13;57.51;99083.81;4941590;28;99164;-75
2022/01/09 10:12:47;;;;;;;1999.90;999.90;;;;;;;-1.08;57.06;99091.81;4941070;28;97243;-74
2022/01/09 10:15:18;;;;;;;1999.90;999.90;;;;;;;-1.07;57.53;99088.38;4941083;28;97863;-75
2022/01/09 10:17:49;;;;;;;1999.90;999.90;;;;;;;-1.07;57.03;99097.06;4942666;28;98644;-73
2022/01/09 10:20:20;;;;;;;1999.90;999.90;;;;;;;-1.04;57.28;99099.84;4943287;28;98770;-75
2022/01/09 10:22:49;;;;;;;1999.90;999.90;;;;;;;-0.98;56.85;99099.19;4943597;28;97159;-75
2022/01/09 10:25:31;;;;;;;1999.90;999.90;;;;;;;-0.97;57.43;99100.94;4944447;28;97958;-75
2022/01/09 10:28:02;;;;;;;1999.90;999.90;;;;;;;-0.93;56.83;99097.63;4948912;28;97608;-76
2022/01/09 10:30:32;;;;;;;1999.90;999.90;;;;;;;-0.89;57.36;99094.31;4949278;28;97923;-75
2022/01/09 10:33:03;;;;;;;1999.90;999.90;;;;;;;-0.86;57.19;99097.03;4948912;28;99405;-75
2022/01/09 10:35:31;;;;;;;1999.90;999.90;;;;;;;-0.80;56.97;99105.13;4951154;28;96751;-73
2022/01/09 10:38:11;;;;;;;1999.90;999.90;;;;;;;-0.77;57.28;99105.25;4953430;28;98091;-74
2022/01/09 10:40:40;;;;;;;1999.90;999.90;;;;;;;-0.78;57.05;99106.09;4948453;28;99328;-73
2022/01/09 10:43:10;;;;;;;1999.90;999.90;;;;;;;-0.76;56.88;99112.25;4952089;28;97119;-75
2022/01/09 10:45:40;;;;;;;1999.90;999.90;;;;;;;-0.72;57.03;99119.34;4948166;28;97308;-75
2022/01/09 10:48:13;;;;;;;1999.90;999.90;;;;;;;-0.67;56.66;99117.84;4950091;28;98059;-72
2022/01/09 10:50:42;;;;;;;1999.90;999.90;;;;;;;-0.64;56.84;99117.03;4949763;28;97927;-74
2022/01/09 10:53:27;;;;;;;1999.90;999.90;;;;;;;-0.63;57.02;99126.69;4948302;28;97708;-74
2022/01/09 10:56:05;;;;;;;1999.90;999.90;;;;;;;-0.58;57.06;99123.41;4947697;28;97086;-75
2022/01/09 10:58:35;;;;;;;1999.90;999.90;;;;;;;-0.55;56.84;99127.84;4950158;28;99101;-74
2022/01/09 11:01:27;;;;;;;1999.90;999.90;;;;;;;-0.57;57.05;99125.19;4949967;28;97533;-75
2022/01/09 11:03:57;;;;;;;1999.90;999.90;;;;;;;-0.52;57.03;99128.00;4944973;28;97384;-74